Tiempo atmosférico en la estación meteorológica de Osa De La Vega, Cuenca (763 m.)



Fecha
DESCASC
Temp. máxima en grados centígrados (hora)
DESCASC
Temp. mínima en grados centígrados (hora)
DESCASC
Temp. media en grados centígrados
DESCASC
Racha de viento máxima en m/sg (hora)
DESCASC
Velocidad máxima media en intervalos de 10 minutos(hora)
DESCASC
Precipitaciones diarias en mm
DESCASC
Precipitaciones de 00:00 a 06:00 en mm
DESCASC
Precipitaciones de 06:00 a 12:00 en mm
DESCASC
Precipitaciones de 12:00 a 18:00 en mm
DESCASC
Precipitaciones de 18:00 a 24:00 en mm
DESCASC
04-03-2021 14.8 (15:50) 5.3 (03:00) 10.1 8.06 (05:30) 4.17 (12:40) 0 0 0 0 0
03-03-2021 15.2 (15:00) 7.4 (23:59) 11.3 6.67 (19:00) 4.17 (16:50) 0 0 0 0 0
02-03-2021 11.1 (12:50) 5.4 (05:50) 8.3 8.61 (10:30) 5.28 (10:30) 0 0 0 0 0
01-03-2021 9.7 (17:00) 5.9 (00:30) 7.8 12.78 (09:50) 8.33 (09:40) 0.4 0 0.4 0 0
28-02-2021 12.9 (15:00) 4.1 (00:00) 8.5 13.89 (11:30) 8.61 (12:00) 0 0 0 0 0
27-02-2021 16.9 (17:20) -0.8 (-00:0) 8 7.5 (13:30) 4.17 (13:20) 0.2 0 0.2 0 0
26-02-2021 14.2 (16:40) 5.5 (00:00) 9.8 8.33 (11:20) 5.56 (11:20) 0 0 0 0 0
25-02-2021 14.4 (17:00) 5.8 (00:00) 10.1 9.44 (11:40) 6.11 (11:30) 0 0 0 0 0
24-02-2021 14.1 (16:40) 4.2 (00:00) 9.2 11.94 (11:00) 7.78 (14:00) 0 0 0 0 0
23-02-2021 12.8 (17:20) 1.3 (00:00) 7.1 8.06 (14:50) 5 (14:50) 0 0 0 0 0
22-02-2021 8.4 (17:00) 4.2 (00:00) 6.3 8.61 (10:50) 5.28 (12:10) 0.4 0.4 0 0 0
21-02-2021 10.7 (16:10) 5.8 (00:00) 8.3 12.78 (03:00) 7.78 (03:10) 4.6 0 0 0 4.6
20-02-2021 19.5 (16:50) 1.8 (00:00) 10.6 11.67 (23:59) 8.33 (15:00) 0 0 0 0 0
19-02-2021 18.6 (16:30) -0.2 (00:00) 9.2 9.44 (15:30) 5.83 (15:20) 0 0 0 0 0
18-02-2021 17.1 (16:30) 0.7 (00:00) 8.9 6.67 (15:10) 3.33 (16:10) 0 0 0 0 0
17-02-2021 18.4 (17:00) 0.8 (00:00) 9.6 6.94 (16:00) 4.17 (15:40) 0 0 0 0 0
16-02-2021 16.4 (17:10) 2.6 (00:00) 9.5 5.83 (14:40) 2.78 (04:40) 0 0 0 0 0
15-02-2021 13.5 (16:40) 5.3 (00:00) 9.4 8.61 (11:00) 5.83 (11:40) 0 0 0 0 0
14-02-2021 14.8 (16:40) 1 (00:00) 7.9 8.61 (16:30) 4.72 (17:10) 0 0 0 0 0
13-02-2021 13.5 (17:00) 0.6 (00:00) 7.1 7.5 (15:10) 3.89 (15:40) 0 0 0 0 0
12-02-2021 12.8 (16:40) 6.6 (00:00) 9.7 12.5 (15:50) 6.39 (13:50) 3 0 3 0 0
11-02-2021 14.2 (16:50) 3.4 (00:00) 8.8 5.56 (14:00) 3.61 (14:00) 0 0 0 0 0
10-02-2021 12.6 (16:40) 4.1 (00:00) 8.4 12.22 (04:40) 7.5 (04:40) 0.8 0 0.8 0 0
09-02-2021 10.1 (15:10) 5.1 (00:00) 7.6 21.11 (15:20) 12.78 (15:20) 4.6 0.4 0 4 0.2
08-02-2021 9.2 (15:50) 5.1 (00:00) 7.1 12.22 (03:10) 8.06 (06:00) 8.8 0.2 7.4 1.2 0
07-02-2021 9.8 (16:10) 5 (00:00) 7.4 8.89 (20:50) 4.44 (22:10) 1.4 0 0 0 1.4
06-02-2021 9.9 (12:10) 6.1 (00:00) 8 10.56 (12:10) 7.78 (12:10) 2.8 1 1.8 0 0
05-02-2021 14.9 (16:00) 7.3 (00:00) 11.1 12.78 (19:40) 7.78 (12:50) 4.8 0 0 0 4.8
04-02-2021 15.8 (15:10) 4.4 (00:00) 10.1 10.28 (12:50) 6.67 (12:50) 0 0 0 0 0

Gráficas

Temp. máximas Temp. mínimas Temp. medias Precipitaciones Rachas de viento máximas Velocidades máximas media en intervalos de 10 minutos

Datos horarios

Fecha y hora oficial Temperatura (ºC) Velocidad del viento (km/h) Dirección del viento Racha (km/h) Dirección de racha Precipitación (mm) Presión (hPa) Tendencia (hPa) Humedad (%)
2021-03-05 23:00:00 7.1 7 Este 15 Sudeste 0 -- -- 82
2021-03-05 22:00:00 7.5 5 Este 13 Este 0 -- -- 78
2021-03-05 21:00:00 7.9 4 Este 10 Este 0 -- -- 75
2021-03-05 20:00:00 9.2 5 Nordeste 13 Este 0 -- -- 70
2021-03-05 19:00:00 11.3 8 Sudeste 24 Sudeste 0 -- -- 62
2021-03-05 18:00:00 12.8 17 Sudeste 30 Sudeste 0 -- -- 57
2021-03-05 17:00:00 13.4 15 Sudeste 30 Sudeste 0 -- -- 54
2021-03-05 16:00:00 14.2 18 Sudeste 35 Sudeste 0 -- -- 51
2021-03-05 15:00:00 14.2 14 Sudeste 30 Sudeste 0 -- -- 51
2021-03-05 14:00:00 13.7 15 Sudeste 31 Sudeste 0 -- -- 54
2021-03-05 13:00:00 12.5 14 Este 28 Sudeste 0 -- -- 58
2021-03-05 12:00:00 10.9 14 Este 28 Sudeste 0 -- -- 68
2021-03-05 11:00:00 9.6 14 Este 25 Este 0 -- -- 71
2021-03-05 10:00:00 7.2 11 Este 20 Este 0 -- -- 82
2021-03-05 09:00:00 -- -- -- -- -- -- -- -- --
2021-03-05 08:00:00 3.8 5 Nordeste 16 Este 0 -- -- 92
2021-03-05 07:00:00 3.6 7 Este 15 Este 0 -- -- 93
2021-03-05 06:00:00 4.2 8 Este 19 Nordeste 0 -- -- 92
2021-03-05 05:00:00 4 6 Nordeste 17 Este 0 -- -- 92
2021-03-05 04:00:00 4 7 Este 15 Este 0 -- -- 92
2021-03-05 03:00:00 4.5 6 Este 13 Este 0 -- -- 91
2021-03-05 02:00:00 4.8 5 Este 9 Este 0 -- -- 89
2021-03-05 01:00:00 5.9 7 Este 17 Este 0 -- -- 87
2021-03-05 00:00:00 6.5 10 Este 21 Sudeste 0 -- -- 85
2021-03-04 23:00:00 7.2 11 Este 23 Sudeste 0 -- -- 80
2021-03-04 22:00:00 7.8 9 Este 16 Sudeste 0 -- -- 74
2021-03-04 21:00:00 8.4 6 Este 13 Este 0 -- -- 70
2021-03-04 20:00:00 9.6 9 Este 13 Sudeste 0 -- -- 66
2021-03-04 19:00:00 11.6 6 Sudeste 21 Sudeste 0 -- -- 60
2021-03-04 18:00:00 13.5 13 Sudeste 24 Sudeste 0 -- -- 54
2021-03-04 17:00:00 14.6 14 Sudeste 24 Este 0 -- -- 53
2021-03-04 16:00:00 14.8 13 Este 24 Sudeste 0 -- -- 52
2021-03-04 15:00:00 14.4 12 Este 27 Este 0 -- -- 56
2021-03-04 14:00:00 13.4 10 Este 28 Sudeste 0 -- -- 61
2021-03-04 13:00:00 12.3 12 Sudeste 27 Sudeste 0 -- -- 65
2021-03-04 12:00:00 10.8 12 Este 25 Este 0 -- -- 69
2021-03-04 11:00:00 9.1 14 Este 25 Sudeste 0 -- -- 75
2021-03-04 10:00:00 7.3 6 Este 20 Este 0 -- -- 84
2021-03-04 09:00:00 6.2 4 Este 21 Este 0 -- -- 87
2021-03-04 08:00:00 6.1 12 Este 25 Este 0 -- -- 88
2021-03-04 07:00:00 6.3 8 Sudeste 20 Sudeste 0 -- -- 88
2021-03-04 06:00:00 6.2 8 Sudeste 29 Sudeste 0 -- -- 89
2021-03-04 05:00:00 6.5 12 Este 19 Este 0 -- -- 91
2021-03-04 04:00:00 6.4 10 Sudeste 23 Sudeste 0 -- -- 95
2021-03-04 03:00:00 5.3 2 Sur 10 Este 0 -- -- 93
2021-03-04 02:00:00 6.2 4 Este 8 Este 0 -- -- 92
2021-03-04 01:00:00 6.7 0 Calma 8 Sudeste 0 -- -- 89
2021-03-04 00:00:00 7.4 2 Sudeste 9 Este 0 -- -- 86
2021-03-03 23:00:00 8.1 3 Sudeste 12 Sudeste 0 -- -- 84
2021-03-03 22:00:00 8.6 6 Sudeste 15 Este 0 -- -- 83
2021-03-03 21:00:00 9.2 7 Este 16 Este 0 -- -- 82
2021-03-03 20:00:00 10 11 Este 22 Este 0 -- -- 79
2021-03-03 19:00:00 11.3 13 Sudeste 24 Este 0 -- -- 77
2021-03-03 18:00:00 12.7 9 Sudeste 22 Sudeste 0 -- -- 74
2021-03-03 17:00:00 13.8 13 Sudeste 24 Sudeste 0 -- -- 70
2021-03-03 16:00:00 15.2 13 Sudeste 20 Este 0 -- -- 66
2021-03-03 15:00:00 15.2 11 Sudeste 20 Sudeste 0 -- -- 71
2021-03-03 14:00:00 14.4 7 Sudeste 13 Sudeste 0 -- -- 70
2021-03-03 13:00:00 12.6 6 Este 14 Este 0 -- -- 77
2021-03-03 12:00:00 11 6 Este 17 Sudeste 0 -- -- 83
2021-03-03 11:00:00 9.9 12 Sudeste 22 Este 0 -- -- 87
2021-03-03 10:00:00 9 7 Este 17 Este 0 -- -- 91
2021-03-03 09:00:00 8.3 4 Este 12 Este 0 -- -- 94
2021-03-03 08:00:00 8.1 4 Este 17 Este 0 -- -- 94
2021-03-03 07:00:00 8.1 5 Este 9 Este 0 -- -- 94
2021-03-03 06:00:00 8.4 3 Este 14 Este 0 -- -- 93
2021-03-03 05:00:00 8.4 5 Este 15 Sudeste 0 -- -- 93
2021-03-03 04:00:00 8.4 6 Sudeste 18 Sudeste 0 -- -- 93
2021-03-03 03:00:00 8.3 8 Este 17 Este 0 -- -- 94
2021-03-03 02:00:00 8 7 Sudeste 14 Este 0 -- -- 93
2021-03-03 01:00:00 8 2 Sudeste 5 Este 0 -- -- 93
2021-03-03 00:00:00 7.8 2 Este 13 Sudeste 0 -- -- 93
2021-03-02 23:00:00 8 6 Este 15 Este 0 -- -- 91
2021-03-02 22:00:00 8.5 8 Este 20 Este 0 -- -- 89
2021-03-02 21:00:00 8.9 5 Este 14 Este 0 -- -- 88
2021-03-02 20:00:00 9.4 5 Este 17 Este 0 -- -- 86
2021-03-02 19:00:00 10 9 Este 27 Este 0 -- -- 82
2021-03-02 18:00:00 10.4 14 Este 26 Este 0 -- -- 80
2021-03-02 17:00:00 10.5 14 Este 26 Este 0 -- -- 81
2021-03-02 16:00:00 10.8 15 Sudeste 24 Este 0 -- -- 79
2021-03-02 15:00:00 10.7 8 Este 22 Este 0 -- -- 78
2021-03-02 14:00:00 10.6 10 Este 22 Este 0 -- -- 77
2021-03-02 13:00:00 10.9 12 Este 24 Sudeste 0 -- -- 76
2021-03-02 12:00:00 10.5 14 Este 29 Este 0 -- -- 79
2021-03-02 11:00:00 9.9 18 Este 31 Sudeste 0 -- -- 81
2021-03-02 10:00:00 8.8 14 Este 26 Este 0 -- -- 86
2021-03-02 09:00:00 7.6 9 Este 18 Sudeste 0 -- -- 90
2021-03-02 08:00:00 6.9 9 Este 21 Este 0 -- -- 93
2021-03-02 07:00:00 6 4 Este 9 Sudeste 0 -- -- 96
2021-03-02 06:00:00 5.4 2 Este 8 Este 0 -- -- 93
2021-03-02 05:00:00 5.9 5 Este 13 Este 0 -- -- 93
2021-03-02 04:00:00 6.4 7 Este 22 Este 0 -- -- 92
2021-03-02 03:00:00 6.7 10 Este 20 Sudeste 0 -- -- 92
2021-03-02 02:00:00 7 11 Sudeste 30 Este 0 -- -- 91
2021-03-02 01:00:00 7 15 Este 27 Sudeste 0 -- -- 91
2021-03-02 00:00:00 7.4 11 Este 26 Sudeste 0 -- -- 90
2021-03-01 23:00:00 7.7 13 Este 26 Este 0 -- -- 89
2021-03-01 22:00:00 7.8 13 Este 30 Este 0 -- -- 88
2021-03-01 21:00:00 8.1 17 Este 31 Este 0 -- -- 87
2021-03-01 20:00:00 8.4 19 Este 32 Este 0 -- -- 85
2021-03-01 19:00:00 8.9 19 Este 35 Este 0 -- -- 81
2021-03-01 18:00:00 9.3 22 Sudeste 40 Este 0 -- -- 79
2021-03-01 17:00:00 9.7 26 Este 42 Sudeste 0 -- -- 79
2021-03-01 16:00:00 9.1 25 Este 41 Sudeste 0 -- -- 82
2021-03-01 15:00:00 9.1 21 Este 35 Este 0 -- -- 83
2021-03-01 14:00:00 8.3 23 Este 35 Este 0 -- -- 88
2021-03-01 13:00:00 8.5 19 Este 36 Este 0 -- -- 87
2021-03-01 12:00:00 8.4 21 Este 42 Sudeste 0 -- -- 87
2021-03-01 11:00:00 8.2 26 Este 41 Este 0 -- -- 89
2021-03-01 10:00:00 7.6 17 Este 46 Este 0.4 -- -- 93
2021-03-01 09:00:00 7.4 15 Este 31 Este 0 -- -- 90
2021-03-01 08:00:00 7.2 15 Sudeste 33 Sudeste 0 -- -- 89
2021-03-01 07:00:00 6.7 12 Sudeste 28 Este 0 -- -- 89
2021-03-01 06:00:00 6.5 16 Este 32 Este 0 -- -- 88
2021-03-01 05:00:00 6.7 14 Este 29 Este 0 -- -- 88
2021-03-01 04:00:00 6.5 9 Este 31 Sudeste 0 -- -- 88
2021-03-01 03:00:00 6.4 10 Este 22 Este 0 -- -- 88
2021-03-01 02:00:00 6.3 12 Este 33 Sudeste 0 -- -- 87
2021-03-01 01:00:00 6.2 14 Este 30 Este 0 -- -- 86
2021-03-01 00:00:00 6.1 17 Este 36 Sudeste 0 -- -- 84
2021-02-28 23:00:00 6.4 19 Este 38 Este 0 -- -- 82
2021-02-28 22:00:00 6.9 17 Este 38 Este 0 -- -- 81
2021-02-28 21:00:00 7.6 18 Este 35 Este 0 -- -- 82
2021-02-28 20:00:00 8.6 13 Sudeste 33 Este 0 -- -- 77
2021-02-28 19:00:00 10 21 Este 39 Sudeste 0 -- -- 68
2021-02-28 18:00:00 12 22 Sudeste 40 Sudeste 0 -- -- 60
2021-02-28 17:00:00 12.2 25 Sudeste 44 Este 0 -- -- 58
2021-02-28 16:00:00 12.5 30 Sudeste 44 Sudeste 0 -- -- 55
2021-02-28 15:00:00 12.9 27 Sudeste 46 Sudeste 0 -- -- 56
2021-02-28 14:00:00 12.1 28 Sudeste 46 Sudeste 0 -- -- 60
2021-02-28 13:00:00 11.4 29 Sudeste 49 Sudeste 0 -- -- 63
2021-02-28 12:00:00 10.2 31 Sudeste 50 Sudeste 0 -- -- 69
2021-02-28 11:00:00 9.3 24 Sudeste 42 Sudeste 0 -- -- 73
2021-02-28 10:00:00 8 21 Sudeste 38 Este 0 -- -- 76
2021-02-28 09:00:00 5.6 10 Sudeste 24 Este 0 -- -- 82
2021-02-28 08:00:00 4.5 12 Este 28 Este 0 -- -- 85
2021-02-28 07:00:00 4.5 12 Sudeste 27 Sudeste 0 -- -- 86
2021-02-28 06:00:00 5.1 14 Sudeste 27 Sudeste 0 -- -- 88
2021-02-28 05:00:00 4.6 9 Sudeste 24 Este 0 -- -- 90
2021-02-28 04:00:00 4.1 9 Este 27 Este 0 -- -- 90
2021-02-28 03:00:00 5.3 4 Sudeste 18 Este 0 -- -- 80
2021-02-28 02:00:00 5.8 5 Este 16 Este 0 -- -- 74
2021-02-28 01:00:00 6.6 11 Este 20 Este 0 -- -- 66
2021-02-28 00:00:00 6.6 6 Sur 13 Sur 0 -- -- 69
2021-02-27 23:00:00 7.5 2 Sur 10 Este 0 -- -- 71
2021-02-27 22:00:00 8 5 Este 14 Este 0 -- -- 66
2021-02-27 21:00:00 8.1 2 Norte 6 Este 0 -- -- 64
2021-02-27 20:00:00 10.7 4 Sudeste 8 Sudeste 0 -- -- 55
2021-02-27 19:00:00 13.8 5 Sudeste 15 Este 0 -- -- 46
2021-02-27 18:00:00 16.6 7 Este 17 Sudeste 0 -- -- 35
2021-02-27 17:00:00 16.8 11 Este 24 Sudeste 0 -- -- 32
2021-02-27 16:00:00 16.6 12 Sudeste 26 Sudeste 0 -- -- 38
2021-02-27 15:00:00 15.9 12 Sudeste 27 Sudeste 0 -- -- 42
2021-02-27 14:00:00 14.8 12 Sudeste 27 Sudeste 0 -- -- 50
2021-02-27 13:00:00 13.2 10 Sudeste 22 Este 0 -- -- 56
2021-02-27 12:00:00 11.4 13 Este 23 Este 0.2 -- -- 61
2021-02-27 11:00:00 6.8 5 Sudeste 10 Sudeste 0 -- -- 96
2021-02-27 10:00:00 3.7 2 Noroeste 4 Noroeste 0 -- -- 100
2021-02-27 09:00:00 0.5 0 Calma 5 Norte 0 -- -- 100
2021-02-27 08:00:00 -0.8 3 Norte 7 Norte 0 -- -- 100
2021-02-27 07:00:00 0.2 0 Calma 4 Nordeste 0 -- -- 99
2021-02-27 06:00:00 0.9 0 Calma 5 Sur 0 -- -- 98
2021-02-27 05:00:00 1 0 Calma 5 Sur 0 -- -- 97
2021-02-27 04:00:00 2.1 0 Calma 4 Norte 0 -- -- 91
2021-02-27 03:00:00 3.3 0 Calma 9 Nordeste 0 -- -- 90
2021-02-27 02:00:00 4.8 0 Calma 8 Sudeste 0 -- -- 93
2021-02-27 01:00:00 5.1 2 Sur 7 Este 0 -- -- 92
2021-02-27 00:00:00 5.5 4 Este 8 Sudeste 0 -- -- 89
2021-02-26 23:00:00 6.9 0 Calma 9 Sudeste 0 -- -- 83
2021-02-26 22:00:00 6.9 0 Calma 5 Sudeste 0 -- -- 82
2021-02-26 21:00:00 8.4 0 Calma 4 Este 0 -- -- 76
2021-02-26 20:00:00 10 0 Calma 10 Este 0 -- -- 70
2021-02-26 19:00:00 11.4 5 Este 19 Este 0 -- -- 65
2021-02-26 18:00:00 13 15 Sudeste 23 Sudeste 0 -- -- 59
2021-02-26 17:00:00 14.2 13 Sudeste 25 Este 0 -- -- 61
2021-02-26 16:00:00 14 14 Este 28 Este 0 -- -- 59
2021-02-26 15:00:00 13.7 15 Este 27 Este 0 -- -- 63
2021-02-26 14:00:00 13.2 15 Sudeste 25 Este 0 -- -- 68
2021-02-26 13:00:00 11.6 9 Este 28 Este 0 -- -- 73
2021-02-26 12:00:00 10.8 16 Este 30 Este 0 -- -- 74
2021-02-26 11:00:00 9.2 17 Este 28 Este 0 -- -- 81
2021-02-26 10:00:00 7.9 12 Sudeste 26 Este 0 -- -- 88
2021-02-26 09:00:00 7.2 11 Este 24 Este 0 -- -- 91
2021-02-26 08:00:00 6.6 8 Sudeste 23 Sudeste 0 -- -- 93
2021-02-26 07:00:00 6.4 12 Este 25 Sudeste 0 -- -- 92
2021-02-26 06:00:00 6.7 14 Este 25 Sudeste 0 -- -- 91
2021-02-26 05:00:00 6.7 8 Este 18 Este 0 -- -- 92
2021-02-26 04:00:00 7 9 Este 23 Este 0 -- -- 93
2021-02-26 03:00:00 7.3 10 Este 26 Este 0 -- -- 93
2021-02-26 02:00:00 7.7 10 Este 27 Sudeste 0 -- -- 93
2021-02-26 01:00:00 8.5 9 Este 23 Este 0 -- -- 92
2021-02-26 00:00:00 8.8 9 Este 23 Este 0 -- -- 92
2021-02-25 23:00:00 8.8 9 Este 22 Este 0 -- -- 90
2021-02-25 22:00:00 9.6 5 Este 19 Este 0 -- -- 87
2021-02-25 21:00:00 10.4 10 Este 22 Nordeste 0 -- -- 83
2021-02-25 20:00:00 10.8 8 Nordeste 22 Este 0 -- -- 79
2021-02-25 19:00:00 12.2 7 Este 23 Este 0 -- -- 74
2021-02-25 18:00:00 13.5 15 Este 28 Este 0 -- -- 63
2021-02-25 17:00:00 14.4 15 Este 28 Este 0 -- -- 65
2021-02-25 16:00:00 13.8 12 Este 27 Este 0 -- -- 70
2021-02-25 15:00:00 13.2 16 Este 29 Sudeste 0 -- -- 72
2021-02-25 14:00:00 12.2 15 Este 30 Este 0 -- -- 74
2021-02-25 13:00:00 11.6 17 Este 33 Este 0 -- -- 75
2021-02-25 12:00:00 10.5 18 Este 34 Este 0 -- -- 80
2021-02-25 11:00:00 9.1 20 Sudeste 33 Este 0 -- -- 84
2021-02-25 10:00:00 7.7 18 Sudeste 31 Este 0 -- -- 89
2021-02-25 09:00:00 6.2 12 Sudeste 22 Sudeste 0 -- -- 92
2021-02-25 08:00:00 5.9 13 Sudeste 27 Este 0 -- -- 91
2021-02-25 07:00:00 6.1 15 Este 30 Sudeste 0 -- -- 91
2021-02-25 06:00:00 6.2 15 Este 27 Sudeste 0 -- -- 90
2021-02-25 05:00:00 6.5 16 Sudeste 28 Este 0 -- -- 90
2021-02-25 04:00:00 6.5 5 Sudeste 16 Este 0 -- -- 90
2021-02-25 03:00:00 7.1 3 Sudeste 18 Sur 0 -- -- 90
2021-02-25 02:00:00 7.7 7 Sudeste 26 Sudeste 0 -- -- 89
2021-02-25 01:00:00 7.8 10 Sudeste 23 Sudeste 0 -- -- 91
2021-02-25 00:00:00 7.4 6 Sudeste 17 Este 0 -- -- 91
2021-02-24 23:00:00 7.6 6 Sudeste 17 Sudeste 0 -- -- 89
2021-02-24 22:00:00 8.1 9 Este 22 Este 0 -- -- 86
2021-02-24 21:00:00 8.9 11 Este 24 Este 0 -- -- 83
2021-02-24 20:00:00 9.7 12 Este 23 Sudeste 0 -- -- 80
2021-02-24 19:00:00 11.2 11 Sudeste 37 Sudeste 0 -- -- 76
2021-02-24 18:00:00 13.1 21 Sudeste 40 Este 0 -- -- 68
2021-02-24 17:00:00 14 23 Sudeste 35 Sudeste 0 -- -- 65
2021-02-24 16:00:00 13.8 24 Sudeste 41 Sudeste 0 -- -- 66
2021-02-24 15:00:00 13.5 26 Sudeste 43 Este 0 -- -- 68
2021-02-24 14:00:00 11.9 28 Sudeste 41 Sudeste 0 -- -- 73
2021-02-24 13:00:00 11 25 Sudeste 39 Sudeste 0 -- -- 79
2021-02-24 12:00:00 9.5 19 Sudeste 39 Sudeste 0 -- -- 85
2021-02-24 11:00:00 8.9 22 Sudeste 43 Sudeste 0 -- -- 87
2021-02-24 10:00:00 8 17 Sudeste 35 Este 0 -- -- 92
2021-02-24 09:00:00 7.3 14 Sudeste 32 Este 0 -- -- 95
2021-02-24 08:00:00 6.2 15 Sudeste 31 Este 0 -- -- 97
2021-02-24 07:00:00 5.5 16 Sudeste 28 Este 0 -- -- 94
2021-02-24 06:00:00 4.2 4 Sudeste 12 Sudeste 0 -- -- 94
2021-02-24 05:00:00 5 5 Sudeste 23 Sudeste 0 -- -- 94
2021-02-24 04:00:00 5.1 2 Sur 22 Este 0 -- -- 94
2021-02-24 03:00:00 5.9 17 Este 30 Este 0 -- -- 95
2021-02-24 02:00:00 5.5 10 Este 27 Este 0 -- -- 92
2021-02-24 01:00:00 6.4 10 Sudeste 26 Este 0 -- -- 90
2021-02-24 00:00:00 6 12 Sudeste 20 Este 0 -- -- 90
2021-02-23 23:00:00 6.1 5 Sur 12 Sudeste 0 -- -- 85
2021-02-23 22:00:00 5.9 3 Nordeste 12 Este 0 -- -- 83
2021-02-23 21:00:00 6.5 2 Sudeste 6 Este 0 -- -- 82
2021-02-23 20:00:00 7.7 4 Este 10 Nordeste 0 -- -- 79
2021-02-23 19:00:00 9.9 5 Sudeste 22 Sudeste 0 -- -- 72
2021-02-23 18:00:00 11.9 15 Este 27 Este 0 -- -- 64
2021-02-23 17:00:00 12.6 16 Sudeste 28 Este 0 -- -- 61
2021-02-23 16:00:00 11.9 16 Este 28 Sudeste 0 -- -- 65
2021-02-23 15:00:00 11 16 Este 29 Este 0 -- -- 67
2021-02-23 14:00:00 10.6 13 Este 28 Sudeste 0 -- -- 71
2021-02-23 13:00:00 10.6 12 Este 26 Sudeste 0 -- -- 74
2021-02-23 12:00:00 9.6 14 Este 24 Este 0 -- -- 75
2021-02-23 11:00:00 8.1 15 Sudeste 25 Sudeste 0 -- -- 84
2021-02-23 10:00:00 5.1 9 Sudeste 17 Sudeste 0 -- -- 99
2021-02-23 09:00:00 1.7 3 Noroeste 4 Noroeste 0 -- -- 96
2021-02-23 08:00:00 1.4 0 Calma 4 Noroeste 0 -- -- 94
2021-02-23 07:00:00 2.2 0 Calma 4 Norte 0 -- -- 93
2021-02-23 06:00:00 3.5 2 Noroeste 2 Oeste 0 -- -- 90
2021-02-23 05:00:00 5.1 0 Calma 4 Nordeste 0 -- -- 90
2021-02-23 04:00:00 5.4 2 Norte 5 Noroeste 0 -- -- 91
2021-02-23 03:00:00 5.4 3 Noroeste 5 Noroeste 0 -- -- 91
2021-02-23 02:00:00 5.4 0 Calma 3 Sudeste 0 -- -- 91
2021-02-23 01:00:00 5.5 2 Noroeste 4 Noroeste 0 -- -- 90
2021-02-23 00:00:00 5.4 0 Calma 8 Noroeste 0 -- -- 89
2021-02-22 23:00:00 5.6 4 Noroeste 6 Noroeste 0 -- -- 89
2021-02-22 22:00:00 6.2 3 Noroeste 8 Nordeste 0 -- -- 86
2021-02-22 21:00:00 7.2 3 Norte 9 Norte 0 -- -- 83
2021-02-22 20:00:00 7.6 2 Norte 5 Norte 0 -- -- 81
2021-02-22 19:00:00 8 3 Norte 13 Noroeste 0 -- -- 76
2021-02-22 18:00:00 8.1 11 Noroeste 21 Noroeste 0 -- -- 72
2021-02-22 17:00:00 8.4 11 Noroeste 27 Noroeste 0 -- -- 71
2021-02-22 16:00:00 8.1 15 Noroeste 26 Noroeste 0 -- -- 72
2021-02-22 15:00:00 7.7 14 Noroeste 29 Noroeste 0 -- -- 75
2021-02-22 14:00:00 7.6 15 Noroeste 28 Noroeste 0 -- -- 76
2021-02-22 13:00:00 6.8 14 Noroeste 28 Noroeste 0 -- -- 82
2021-02-22 12:00:00 5.9 15 Noroeste 30 Noroeste 0 -- -- 85
2021-02-22 11:00:00 5.1 9 Oeste 31 Sudoeste 0 -- -- 87
2021-02-22 10:00:00 4.6 8 Oeste 20 Sudoeste 0 -- -- 90
2021-02-22 09:00:00 4.3 5 Sudoeste 15 Oeste 0 -- -- 91
2021-02-22 08:00:00 4.6 3 Sudoeste 9 Sudoeste 0 -- -- 94
2021-02-22 07:00:00 4.9 2 Oeste 18 Oeste 0 -- -- 94
2021-02-22 06:00:00 5.1 7 Oeste 20 Sudoeste 0 -- -- 94
2021-02-22 05:00:00 5.1 9 Sudoeste 23 Sudoeste 0 -- -- 94
2021-02-22 04:00:00 5 11 Sudoeste 22 Sudoeste 0 -- -- 94
2021-02-22 03:00:00 4.7 9 Sudoeste 18 Sudoeste 0.2 -- -- 95
2021-02-22 02:00:00 4.8 5 Oeste 22 Oeste 0 -- -- 94
2021-02-22 01:00:00 5.2 7 Oeste 26 Noroeste 0.2 -- -- 95
2021-02-22 00:00:00 5.8 9 Oeste 26 Oeste 0.4 -- -- 94
2021-02-21 23:00:00 7.1 5 Oeste 16 Oeste 0.6 -- -- 95
2021-02-21 22:00:00 7.5 8 Oeste 21 Sudoeste 2 -- -- 93
2021-02-21 21:00:00 8.8 9 Sur 27 Sudeste 1.6 -- -- 91
2021-02-21 20:00:00 9.6 10 Este 22 Sudeste 0 -- -- 88
2021-02-21 19:00:00 9.9 9 Sudeste 24 Sudeste 0 -- -- 84
2021-02-21 18:00:00 10.3 15 Sudeste 34 Sudeste 0 -- -- 81
2021-02-21 17:00:00 10.6 19 Sudeste 35 Este 0 -- -- 79
2021-02-21 16:00:00 10.6 21 Este 35 Este 0 -- -- 80
2021-02-21 15:00:00 9.8 18 Este 37 Este 0 -- -- 83
2021-02-21 14:00:00 9.1 17 Este 30 Sudeste 0 -- -- 86
2021-02-21 13:00:00 9 19 Sudeste 28 Este 0 -- -- 86
2021-02-21 12:00:00 8.3 21 Sudeste 37 Este 0 -- -- 88
2021-02-21 11:00:00 7.8 20 Este 39 Este 0 -- -- 89
2021-02-21 10:00:00 7.3 20 Este 32 Sudeste 0 -- -- 91
2021-02-21 09:00:00 7.3 16 Sudeste 28 Sudeste 0 -- -- 90
2021-02-21 08:00:00 7 17 Sudeste 29 Sudeste 0 -- -- 90
2021-02-21 07:00:00 6.9 14 Sudeste 24 Sudeste 0 -- -- 90
2021-02-21 06:00:00 7.2 15 Este 28 Sudeste 0 -- -- 89
2021-02-21 05:00:00 7.2 6 Sudeste 40 Sudeste 0 -- -- 89
2021-02-21 04:00:00 7.1 24 Este 44 Este 0 -- -- 89
2021-02-21 03:00:00 7.3 28 Este 46 Sudeste 0 -- -- 87
2021-02-21 02:00:00 7.4 24 Este 44 Sudeste 0 -- -- 85
2021-02-21 01:00:00 7.3 24 Este 44 Sudeste 0 -- -- 86
2021-02-21 00:00:00 7.5 24 Este 42 Sudeste 0 -- -- 86
2021-02-20 23:00:00 8.2 23 Este 36 Este 0 -- -- 84
2021-02-20 22:00:00 9.1 16 Este 32 Sudeste 0 -- -- 79
2021-02-20 21:00:00 11.2 13 Este 33 Este 0 -- -- 65
2021-02-20 20:00:00 12.9 13 Sudeste 29 Sudeste 0 -- -- 50
2021-02-20 19:00:00 15 11 Sudeste 21 Sudeste 0 -- -- 44
2021-02-20 18:00:00 18.4 13 Sur 29 Sur 0 -- -- 29
2021-02-20 17:00:00 19.3 25 Sur 37 Sur 0 -- -- 26
2021-02-20 16:00:00 18.4 20 Sur 36 Sur 0 -- -- 30
2021-02-20 15:00:00 19.1 30 Sur 38 Sur 0 -- -- 30
2021-02-20 14:00:00 17.9 25 Sur 38 Sur 0 -- -- 37
2021-02-20 13:00:00 16.2 16 Sudeste 24 Sur 0 -- -- 41
2021-02-20 12:00:00 13.3 10 Sur 21 Sudeste 0 -- -- 49
2021-02-20 11:00:00 9.3 12 Sudeste 19 Sur 0 -- -- 65
2021-02-20 10:00:00 6.6 3 Sur 13 Este 0 -- -- 76
2021-02-20 09:00:00 3.9 0 Calma 7 Este 0 -- -- 85
2021-02-20 08:00:00 3.7 4 Sur 10 Sudeste 0 -- -- 88
2021-02-20 07:00:00 2 0 Calma 4 Norte 0 -- -- 86
2021-02-20 06:00:00 1.9 2 Noroeste 4 Norte 0 -- -- 83
2021-02-20 05:00:00 2.1 3 Noroeste 5 Norte 0 -- -- 82
2021-02-20 04:00:00 2.5 4 Noroeste 5 Noroeste 0 -- -- 79
2021-02-20 03:00:00 3.4 3 Norte 5 Norte 0 -- -- 76
2021-02-20 02:00:00 4.3 3 Nordeste 8 Norte 0 -- -- 73
2021-02-20 01:00:00 4.5 0 Calma 4 Noroeste 0 -- -- 74
2021-02-20 00:00:00 4.8 2 Noroeste 5 Noroeste 0 -- -- 72
2021-02-19 23:00:00 6.1 4 Noroeste 6 Noroeste 0 -- -- 66
2021-02-19 22:00:00 7.6 0 Calma 5 Sudeste 0 -- -- 60
2021-02-19 21:00:00 9.6 3 Este 9 Sudeste 0 -- -- 52
2021-02-19 20:00:00 12.4 0 Calma 10 Sudoeste 0 -- -- 44
2021-02-19 19:00:00 15.1 8 Sudoeste 19 Sur 0 -- -- 34
2021-02-19 18:00:00 17.9 12 Sudoeste 29 Sur 0 -- -- 28
2021-02-19 17:00:00 18.6 14 Sudoeste 29 Sudoeste 0 -- -- 30
2021-02-19 16:00:00 18.4 17 Sudoeste 34 Sur 0 -- -- 27
2021-02-19 15:00:00 17.5 15 Sudoeste 32 Sudoeste 0 -- -- 33
2021-02-19 14:00:00 16.5 13 Sur 26 Sur 0 -- -- 39
2021-02-19 13:00:00 14.2 13 Sur 22 Sur 0 -- -- 49
2021-02-19 12:00:00 10.8 10 Sur 18 Sur 0 -- -- 66
2021-02-19 11:00:00 7.3 7 Sur 10 Sur 0 -- -- 87
2021-02-19 10:00:00 3.8 0 Calma 5 Noroeste 0 -- -- 94
2021-02-19 09:00:00 0.4 4 Norte 6 Noroeste 0 -- -- 92
2021-02-19 08:00:00 -0.1 0 Calma 4 Noroeste 0 -- -- 89
2021-02-19 07:00:00 0.4 2 Norte 3 Norte 0 -- -- 89
2021-02-19 06:00:00 0.8 0 Calma 7 Noroeste 0 -- -- 87
2021-02-19 05:00:00 1.3 4 Norte 6 Noroeste 0 -- -- 88
2021-02-19 04:00:00 1.8 3 Norte 4 Noroeste 0 -- -- 86
2021-02-19 03:00:00 2.3 0 Calma 5 Este 0 -- -- 84
2021-02-19 02:00:00 2.8 3 Sudoeste 11 Sur 0 -- -- 82
2021-02-19 01:00:00 3.8 3 Noroeste 9 Noroeste 0 -- -- 80
2021-02-19 00:00:00 4.5 5 Norte 7 Norte 0 -- -- 79
2021-02-18 23:00:00 6 0 Calma 4 Nordeste 0 -- -- 72
2021-02-18 22:00:00 7.5 0 Calma 6 Este 0 -- -- 67
2021-02-18 21:00:00 9.3 3 Noroeste 10 Oeste 0 -- -- 61
2021-02-18 20:00:00 11.2 3 Oeste 10 Oeste 0 -- -- 54
2021-02-18 19:00:00 14 2 Oeste 13 Noroeste 0 -- -- 45
2021-02-18 18:00:00 16.5 4 Noroeste 19 Sudoeste 0 -- -- 36
2021-02-18 17:00:00 17.1 9 Sudoeste 22 Oeste 0 -- -- 37
2021-02-18 16:00:00 16.6 10 Sudoeste 24 Oeste 0 -- -- 38
2021-02-18 15:00:00 16.1 9 Oeste 24 Oeste 0 -- -- 33
2021-02-18 14:00:00 15.1 7 Sudoeste 16 Sur 0 -- -- 45
2021-02-18 13:00:00 12.2 5 Sur 11 Sur 0 -- -- 66
2021-02-18 12:00:00 10.2 6 Sur 12 Sudeste 0 -- -- 75
2021-02-18 11:00:00 7.2 5 Sur 9 Sur 0 -- -- 86
2021-02-18 10:00:00 4.2 0 Calma 9 Norte 0 -- -- 90
2021-02-18 09:00:00 1.4 5 Norte 9 Noroeste 0 -- -- 91
2021-02-18 08:00:00 0.7 4 Norte 7 Noroeste 0 -- -- 88
2021-02-18 07:00:00 1.3 3 Norte 6 Norte 0 -- -- 87
2021-02-18 06:00:00 1.8 0 Calma 8 Norte 0 -- -- 86
2021-02-18 05:00:00 2 4 Norte 7 Norte 0 -- -- 85
2021-02-18 04:00:00 2.4 3 Norte 7 Noroeste 0 -- -- 84
2021-02-18 03:00:00 2.9 0 Calma 7 Norte 0 -- -- 82
2021-02-18 02:00:00 3.2 6 Norte 9 Noroeste 0 -- -- 82
2021-02-18 01:00:00 4.3 5 Norte 10 Norte 0 -- -- 80
2021-02-18 00:00:00 4.4 6 Norte 9 Norte 0 -- -- 80
2021-02-17 23:00:00 5.6 0 Calma 9 Sudeste 0 -- -- 75
2021-02-17 22:00:00 6.9 4 Norte 8 Noroeste 0 -- -- 72
2021-02-17 21:00:00 8.7 4 Este 6 Este 0 -- -- 65
2021-02-17 20:00:00 11.2 3 Este 8 Este 0 -- -- 58
2021-02-17 19:00:00 14.7 0 Calma 12 Sudoeste 0 -- -- 48
2021-02-17 18:00:00 17.4 10 Sur 22 Sur 0 -- -- 37
2021-02-17 17:00:00 18.4 13 Sudoeste 20 Sur 0 -- -- 35
2021-02-17 16:00:00 17.8 15 Sur 25 Sur 0 -- -- 37
2021-02-17 15:00:00 17.2 11 Sur 20 Sur 0 -- -- 42
2021-02-17 14:00:00 15.5 11 Sur 17 Sur 0 -- -- 52
2021-02-17 13:00:00 13.3 9 Sur 17 Sudeste 0 -- -- 65
2021-02-17 12:00:00 10.2 7 Sur 12 Sur 0 -- -- 81
2021-02-17 11:00:00 6.5 3 Sudeste 7 Sur 0 -- -- 93
2021-02-17 10:00:00 3.7 2 Norte 6 Noroeste 0 -- -- 97
2021-02-17 09:00:00 1.2 2 Norte 5 Norte 0 -- -- 95
2021-02-17 08:00:00 1 4 Noroeste 6 Norte 0 -- -- 93
2021-02-17 07:00:00 1.3 2 Norte 6 Norte 0 -- -- 93
2021-02-17 06:00:00 1.4 0 Calma 5 Norte 0 -- -- 92
2021-02-17 05:00:00 2 4 Norte 7 Noroeste 0 -- -- 91
2021-02-17 04:00:00 2.6 0 Calma 7 Norte 0 -- -- 90
2021-02-17 03:00:00 3.1 3 Norte 5 Norte 0 -- -- 90
2021-02-17 02:00:00 3.2 2 Norte 8 Norte 0 -- -- 89
2021-02-17 01:00:00 3.6 5 Norte 7 Norte 0 -- -- 89
2021-02-17 00:00:00 4.7 2 Noroeste 6 Norte 0 -- -- 85
2021-02-16 23:00:00 5.8 4 Noroeste 6 Noroeste 0 -- -- 83
2021-02-16 22:00:00 6.7 5 Noroeste 8 Noroeste 0 -- -- 81
2021-02-16 21:00:00 8.7 4 Noroeste 6 Noroeste 0 -- -- 75
2021-02-16 20:00:00 10.8 0 Calma 4 Este 0 -- -- 68
2021-02-16 19:00:00 13.9 0 Calma 5 Sudoeste 0 -- -- 60
2021-02-16 18:00:00 15.8 8 Sur 14 Sudoeste 0 -- -- 53
2021-02-16 17:00:00 16.3 6 Sudoeste 13 Sudoeste 0 -- -- 48
2021-02-16 16:00:00 15.3 7 Sudoeste 15 Oeste 0 -- -- 49
2021-02-16 15:00:00 14.4 5 Sudoeste 21 Sur 0 -- -- 58
2021-02-16 14:00:00 12.1 5 Sur 14 Sur 0 -- -- 72
2021-02-16 13:00:00 9.8 6 Sur 12 Sur 0 -- -- 83
2021-02-16 12:00:00 7.5 5 Sudeste 12 Sudeste 0 -- -- 91
2021-02-16 11:00:00 5 3 Sudeste 13 Este 0 -- -- 98
2021-02-16 10:00:00 3 0 Calma 5 Norte 0 -- -- 99
2021-02-16 09:00:00 2.7 0 Calma 6 Sudeste 0 -- -- 98
2021-02-16 08:00:00 2.8 4 Sudeste 13 Sudeste 0 -- -- 98
2021-02-16 07:00:00 2.7 5 Este 13 Sudeste 0 -- -- 95
2021-02-16 06:00:00 3.8 0 Calma 9 Este 0 -- -- 94
2021-02-16 05:00:00 4.7 6 Este 18 Sudeste 0 -- -- 96
2021-02-16 04:00:00 4.6 3 Este 14 Este 0 -- -- 96
2021-02-16 03:00:00 4.6 5 Este 13 Este 0 -- -- 95
2021-02-16 02:00:00 4.5 2 Sur 13 Sudeste 0 -- -- 92
2021-02-16 01:00:00 5.4 4 Sudeste 13 Este 0 -- -- 90
2021-02-16 00:00:00 6.2 0 Calma 16 Este 0 -- -- 86
2021-02-15 23:00:00 6.8 10 Sudeste 21 Sudeste 0 -- -- 85
2021-02-15 22:00:00 7.5 9 Sudeste 22 Este 0 -- -- 82
2021-02-15 21:00:00 8.3 10 Sudeste 25 Sudeste 0 -- -- 79
2021-02-15 20:00:00 9 8 Sudeste 18 Sudeste 0 -- -- 76
2021-02-15 19:00:00 10.4 11 Sudeste 27 Este 0 -- -- 71
2021-02-15 18:00:00 12.4 16 Este 29 Este 0 -- -- 64
2021-02-15 17:00:00 13.4 18 Este 30 Este 0 -- -- 62
2021-02-15 16:00:00 13.1 18 Este 30 Sudeste 0 -- -- 64
2021-02-15 15:00:00 12.6 16 Este 29 Este 0 -- -- 67
2021-02-15 14:00:00 12 17 Sudeste 30 Sudeste 0 -- -- 70
2021-02-15 13:00:00 11.1 17 Este 30 Este 0 -- -- 74
2021-02-15 12:00:00 10.4 18 Este 31 Este 0 -- -- 78
2021-02-15 11:00:00 9.1 20 Sudeste 31 Sudeste 0 -- -- 84
2021-02-15 10:00:00 7.7 13 Sudeste 27 Este 0 -- -- 91
2021-02-15 09:00:00 5.8 7 Sudeste 14 Este 0 -- -- 97
2021-02-15 08:00:00 5.4 4 Sudeste 13 Este 0 -- -- 94
2021-02-15 07:00:00 5.7 2 Sur 9 Sudeste 0 -- -- 94
2021-02-15 06:00:00 6.1 4 Sudeste 17 Sudeste 0 -- -- 93
2021-02-15 05:00:00 6.8 8 Sudeste 20 Sudeste 0 -- -- 92
2021-02-15 04:00:00 6.5 5 Sudeste 20 Sudeste 0 -- -- 92
2021-02-15 03:00:00 7 11 Sudeste 22 Sudeste 0 -- -- 90
2021-02-15 02:00:00 7.3 12 Sudeste 27 Este 0 -- -- 90
2021-02-15 01:00:00 7.4 13 Sudeste 24 Sudeste 0 -- -- 89
2021-02-15 00:00:00 7.3 12 Sudeste 23 Sudeste 0 -- -- 90
2021-02-14 23:00:00 7.2 8 Sudeste 22 Sudeste 0 -- -- 88
2021-02-14 22:00:00 8 12 Este 24 Este 0 -- -- 85
2021-02-14 21:00:00 8.8 10 Este 26 Sudeste 0 -- -- 81
2021-02-14 20:00:00 9.8 7 Este 21 Sudeste 0 -- -- 77
2021-02-14 19:00:00 11.5 8 Este 23 Sudeste 0 -- -- 66
2021-02-14 18:00:00 14.1 17 Sudeste 27 Sudeste 0 -- -- 56
2021-02-14 17:00:00 14.8 14 Sudeste 31 Sudeste 0 -- -- 55
2021-02-14 16:00:00 14.3 16 Sudeste 26 Este 0 -- -- 58
2021-02-14 15:00:00 13.8 14 Sudeste 24 Este 0 -- -- 60
2021-02-14 14:00:00 13 13 Sudeste 25 Sudeste 0 -- -- 64
2021-02-14 13:00:00 12 16 Sudeste 26 Sudeste 0 -- -- 66
2021-02-14 12:00:00 10.3 12 Este 24 Este 0 -- -- 72
2021-02-14 11:00:00 7.5 11 Sudeste 21 Este 0 -- -- 84
2021-02-14 10:00:00 3.6 0 Calma 5 Noroeste 0 -- -- 97
2021-02-14 09:00:00 1.5 3 Norte 9 Noroeste 0 -- -- 96
2021-02-14 08:00:00 1.1 3 Norte 6 Norte 0 -- -- 94
2021-02-14 07:00:00 1.6 0 Calma 4 Noroeste 0 -- -- 92
2021-02-14 06:00:00 2.4 3 Sur 9 Norte 0 -- -- 92
2021-02-14 05:00:00 3 4 Noroeste 9 Noroeste 0 -- -- 92
2021-02-14 04:00:00 3.2 2 Norte 12 Noroeste 0 -- -- 89
2021-02-14 03:00:00 3.5 8 Noroeste 10 Noroeste 0 -- -- 90
2021-02-14 02:00:00 4.3 4 Noroeste 9 Noroeste 0 -- -- 89
2021-02-14 01:00:00 4.3 5 Noroeste 8 Noroeste 0 -- -- 91
2021-02-14 00:00:00 4.9 4 Norte 8 Norte 0 -- -- 89
2021-02-13 23:00:00 5 5 Noroeste 6 Noroeste 0 -- -- 87
2021-02-13 22:00:00 6.2 0 Calma 3 Este 0 -- -- 83
2021-02-13 21:00:00 7.5 0 Calma 6 Oeste 0 -- -- 81
2021-02-13 20:00:00 8.3 2 Sudoeste 12 Noroeste 0 -- -- 79
2021-02-13 19:00:00 10.9 8 Noroeste 17 Noroeste 0 -- -- 69
2021-02-13 18:00:00 12.9 10 Noroeste 24 Noroeste 0 -- -- 58
2021-02-13 17:00:00 13.5 12 Noroeste 23 Noroeste 0 -- -- 51
2021-02-13 16:00:00 12.8 12 Noroeste 27 Noroeste 0 -- -- 54
2021-02-13 15:00:00 12.2 12 Noroeste 24 Noroeste 0 -- -- 64
2021-02-13 14:00:00 11.5 11 Noroeste 23 Noroeste 0 -- -- 66
2021-02-13 13:00:00 10.6 8 Noroeste 15 Noroeste 0 -- -- 72
2021-02-13 08:00:00 -- -- -- -- -- -- -- -- --
2021-02-13 07:00:00 -- -- -- -- -- -- -- -- --
2021-02-13 06:00:00 -- -- -- -- -- -- -- -- --
2021-02-13 05:00:00 -- -- -- -- -- -- -- -- --
2021-02-13 04:00:00 4.8 0 Calma 12 Noroeste 0 -- -- 87
2021-02-13 03:00:00 5.4 6 Noroeste 17 Noroeste 0 -- -- 86
2021-02-13 02:00:00 5.7 10 Noroeste 21 Noroeste 0 -- -- 85
2021-02-13 01:00:00 5.6 6 Norte 12 Norte 0 -- -- 86
2021-02-13 00:00:00 6.6 5 Noroeste 19 Noroeste 0 -- -- 83
2021-02-12 23:00:00 7.1 6 Noroeste 19 Noroeste 0 -- -- 83
2021-02-12 22:00:00 7.5 13 Noroeste 19 Noroeste 0 -- -- 81
2021-02-12 21:00:00 8.2 3 Oeste 19 Noroeste 0 -- -- 79
2021-02-12 20:00:00 9.1 8 Noroeste 27 Noroeste 0 -- -- 75
2021-02-12 19:00:00 10.4 14 Noroeste 31 Noroeste 0 -- -- 71
2021-02-12 18:00:00 11.7 21 Noroeste 37 Noroeste 0 -- -- 69
2021-02-12 17:00:00 12.7 18 Noroeste 40 Noroeste 0 -- -- 66
2021-02-12 16:00:00 12.5 18 Noroeste 45 Noroeste 0 -- -- 66
2021-02-12 15:00:00 12.1 18 Noroeste 41 Noroeste 0 -- -- 69
2021-02-12 14:00:00 11.9 22 Noroeste 41 Noroeste 0 -- -- 69
2021-02-12 13:00:00 11.2 17 Noroeste 38 Noroeste 0 -- -- 81
2021-02-12 12:00:00 10.2 9 Oeste 31 Noroeste 0 -- -- 90
2021-02-12 11:00:00 9.4 9 Noroeste 34 Oeste 0 -- -- 90
2021-02-12 10:00:00 9.2 8 Oeste 28 Sudoeste 0.2 -- -- 96
2021-02-12 09:00:00 8.6 13 Noroeste 43 Noroeste 2.2 -- -- 94
2021-02-12 08:00:00 9.8 15 Sudoeste 25 Sudoeste 0.6 -- -- 99
2021-02-12 07:00:00 9.6 10 Sudoeste 24 Sudoeste 0 -- -- 99
2021-02-12 06:00:00 9.7 18 Sudoeste 27 Sudoeste 0 -- -- 99
2021-02-12 05:00:00 9.9 13 Sudoeste 19 Sudoeste 0 -- -- 98
2021-02-12 04:00:00 10.2 12 Sudoeste 17 Sudoeste 0 -- -- 98
2021-02-12 03:00:00 9.8 7 Sur 10 Sur 0 -- -- 98
2021-02-12 02:00:00 10.4 6 Sur 12 Sudoeste 0 -- -- 97
2021-02-12 01:00:00 10.2 6 Sur 10 Sur 0 -- -- 96
2021-02-12 00:00:00 10.1 3 Sur 10 Sur 0 -- -- 95
2021-02-11 23:00:00 10.5 3 Sudeste 8 Sudeste 0 -- -- 93
2021-02-11 22:00:00 10.6 0 Calma 6 Sudeste 0 -- -- 92
2021-02-11 21:00:00 10.8 0 Calma 4 Nordeste 0 -- -- 89
2021-02-11 20:00:00 11.6 0 Calma 5 Sudoeste 0 -- -- 86
2021-02-11 19:00:00 12.6 4 Sudoeste 13 Oeste 0 -- -- 84
2021-02-11 18:00:00 13.4 7 Sudoeste 16 Sudoeste 0 -- -- 82
2021-02-11 17:00:00 13.9 9 Sudoeste 19 Sudoeste 0 -- -- 79
2021-02-11 16:00:00 13.8 9 Sudoeste 16 Sudoeste 0 -- -- 82
2021-02-11 15:00:00 12.8 9 Sudoeste 17 Sudoeste 0 -- -- 86
2021-02-11 14:00:00 13.3 13 Sudoeste 20 Sudoeste 0 -- -- 84
2021-02-11 13:00:00 11.8 8 Sudoeste 18 Sudoeste 0 -- -- 89
2021-02-11 12:00:00 10.2 9 Sudoeste 19 Sudoeste 0 -- -- 100
2021-02-11 11:00:00 8.1 6 Sur 10 Sur 0 -- -- 100
2021-02-11 10:00:00 6.5 0 Calma 4 Sur 0 -- -- 100
2021-02-11 09:00:00 5.4 2 Noroeste 7 Este 0 -- -- 99
2021-02-11 08:00:00 4.9 0 Calma 4 Nordeste 0 -- -- 98
2021-02-11 07:00:00 4.4 0 Calma 3 Noroeste 0 -- -- 97
2021-02-11 06:00:00 3.8 0 Calma 5 Oeste 0 -- -- 95
2021-02-11 05:00:00 4.4 3 Noroeste 4 Noroeste 0 -- -- 95
2021-02-11 04:00:00 4.3 0 Calma 3 Nordeste 0 -- -- 96
2021-02-11 03:00:00 3.6 0 Calma 2 Sudeste 0 -- -- 95
2021-02-11 02:00:00 3.4 0 Calma 5 Oeste 0 -- -- 93
2021-02-11 01:00:00 3.9 0 Calma 6 Este 0 -- -- 93
2021-02-11 00:00:00 4.1 2 Este 7 Sudeste 0 -- -- 91
2021-02-10 23:00:00 4.7 0 Calma 5 Sudoeste 0 -- -- 89
2021-02-10 22:00:00 4.9 2 Este 11 Sudeste 0 -- -- 89
2021-02-10 21:00:00 5.8 2 Nordeste 6 Norte 0 -- -- 85
2021-02-10 20:00:00 7.4 4 Nordeste 10 Noroeste 0 -- -- 81
2021-02-10 19:00:00 9.8 6 Noroeste 18 Noroeste 0 -- -- 70
2021-02-10 18:00:00 11.9 13 Noroeste 26 Noroeste 0 -- -- 56
2021-02-10 17:00:00 12.6 10 Oeste 27 Oeste 0 -- -- 52
2021-02-10 16:00:00 12.1 10 Oeste 28 Noroeste 0 -- -- 61
2021-02-10 15:00:00 11.3 13 Oeste 28 Noroeste 0 -- -- 62
2021-02-10 14:00:00 10.6 11 Oeste 31 Noroeste 0 -- -- 70
2021-02-10 13:00:00 10 17 Noroeste 37 Noroeste 0 -- -- 73
2021-02-10 12:00:00 9.3 21 Noroeste 41 Oeste 0 -- -- 78
2021-02-10 11:00:00 8.6 16 Noroeste 41 Noroeste 0 -- -- 81
2021-02-10 10:00:00 7.8 13 Noroeste 31 Noroeste 0 -- -- 87
2021-02-10 09:00:00 7.1 9 Oeste 29 Oeste 0.2 -- -- 95
2021-02-10 08:00:00 7 14 Oeste 38 Oeste 0.6 -- -- 93
2021-02-10 07:00:00 7.5 18 Sudoeste 36 Sudoeste 0 -- -- 85
2021-02-10 06:00:00 6.5 26 Sudoeste 41 Sudoeste 0 -- -- 91
2021-02-10 05:00:00 6.8 27 Sudoeste 44 Sudoeste 0 -- -- 85
2021-02-10 04:00:00 6.5 17 Sudoeste 31 Sur 0 -- -- 94
2021-02-10 03:00:00 6.5 19 Sur 27 Sur 0 -- -- 93
2021-02-10 02:00:00 6.6 8 Sudoeste 21 Sudoeste 0 -- -- 86
2021-02-10 01:00:00 7 13 Sudoeste 25 Sudoeste 0 -- -- 86
2021-02-10 00:00:00 6.9 11 Sudoeste 26 Sudoeste 0 -- -- 89
2021-02-09 23:00:00 7.5 17 Sudoeste 43 Sudoeste 0 -- -- 84
2021-02-09 22:00:00 7.7 17 Sudoeste 34 Sudoeste 0 -- -- 90
2021-02-09 21:00:00 7.8 17 Sudoeste 35 Sudoeste 0 -- -- 92
2021-02-09 20:00:00 7.8 19 Sudoeste 35 Sudoeste 0 -- -- 90
2021-02-09 19:00:00 7.7 14 Sudoeste 26 Sudoeste 0.2 -- -- 90
2021-02-09 18:00:00 7.6 6 Oeste 33 Oeste 0.2 -- -- 91
2021-02-09 17:00:00 8.7 20 Oeste 54 Sudoeste 3.2 -- -- 90
2021-02-09 16:00:00 9.4 30 Sudoeste 76 Sur 0.6 -- -- 91
2021-02-09 15:00:00 10 42 Sudoeste 65 Sudoeste 0 -- -- 83
2021-02-09 14:00:00 9.3 29 Sudoeste 48 Sur 0 -- -- 90
2021-02-09 13:00:00 8.3 23 Sudoeste 44 Sur 0 -- -- 93
2021-02-09 12:00:00 7.8 15 Sur 39 Sur 0 -- -- 95
2021-02-09 11:00:00 7.3 18 Sudoeste 34 Sudoeste 0 -- -- 95
2021-02-09 10:00:00 6.9 16 Sur 27 Sur 0 -- -- 96
2021-02-09 09:00:00 6.1 17 Sur 30 Sur 0 -- -- 98
2021-02-09 08:00:00 5.8 22 Sur 35 Sudoeste 0 -- -- 98
2021-02-09 07:00:00 5.9 15 Sudoeste 33 Sudoeste 0 -- -- 96
2021-02-09 06:00:00 5.8 16 Sudoeste 25 Sudoeste 0 -- -- 96
2021-02-09 05:00:00 5.9 13 Sudoeste 21 Sur 0.2 -- -- 94
2021-02-09 04:00:00 5.9 11 Sudoeste 18 Sudoeste 0.2 -- -- 95
2021-02-09 03:00:00 6 13 Sudoeste 23 Sudoeste 0 -- -- 90
2021-02-09 02:00:00 5.1 7 Sur 17 Sudoeste 0 -- -- 91
2021-02-09 01:00:00 5.3 9 Sudoeste 27 Sudoeste 0 -- -- 89
2021-02-09 00:00:00 5.3 13 Sur 22 Sudoeste 0 -- -- 91
2021-02-08 23:00:00 5.7 12 Sudoeste 26 Sudoeste 0 -- -- 89
2021-02-08 22:00:00 6.5 17 Sudoeste 35 Oeste 0 -- -- 85
2021-02-08 21:00:00 6.6 18 Sudoeste 39 Sudoeste 0 -- -- 84
2021-02-08 20:00:00 6.9 18 Sudoeste 37 Sudoeste 0 -- -- 84
2021-02-08 19:00:00 8.1 22 Sudoeste 37 Sudoeste 0 -- -- 82
2021-02-08 18:00:00 8.6 9 Sudoeste 33 Oeste 0 -- -- 74
2021-02-08 17:00:00 8.9 14 Sudoeste 29 Oeste 0 -- -- 83
2021-02-08 16:00:00 8.9 16 Noroeste 42 Sudoeste 0.2 -- -- 76
2021-02-08 15:00:00 8.6 19 Sudoeste 37 Sudoeste 0 -- -- 86
2021-02-08 14:00:00 6.9 13 Oeste 39 Sudoeste 0.8 -- -- 91
2021-02-08 13:00:00 7.6 18 Sudoeste 33 Sur 0.2 -- -- 89
2021-02-08 12:00:00 7.5 10 Oeste 29 Sudoeste 0 -- -- 88
2021-02-08 11:00:00 7.1 9 Oeste 35 Oeste 0 -- -- 91
2021-02-08 10:00:00 6.8 12 Oeste 33 Oeste 0 -- -- 94
2021-02-08 09:00:00 6.9 12 Oeste 28 Sudoeste 0.6 -- -- 96
2021-02-08 08:00:00 6.9 17 Sudoeste 32 Sudoeste 3 -- -- 95
2021-02-08 07:00:00 6.4 15 Sudoeste 44 Sur 3.8 -- -- 99
2021-02-08 06:00:00 6.3 29 Sur 40 Sur 0 -- -- 98
2021-02-08 05:00:00 5.7 21 Sur 33 Sudoeste 0 -- -- 97
2021-02-08 04:00:00 5.4 20 Sur 44 Sudoeste 0.2 -- -- 97
2021-02-08 03:00:00 5.4 23 Sudoeste 38 Sudoeste 0 -- -- 99
2021-02-08 02:00:00 5.3 20 Sudoeste 36 Sudoeste 0 -- -- 98
2021-02-08 01:00:00 5.3 15 Sudoeste 27 Sudoeste 0 -- -- 97
2021-02-08 00:00:00 5.1 13 Sudoeste 24 Oeste 0 -- -- 95
2021-02-07 23:00:00 5.1 14 Sudoeste 31 Sudoeste 0.4 -- -- 94
2021-02-07 22:00:00 5.6 14 Sudoeste 28 Sudoeste 0.6 -- -- 93
2021-02-07 21:00:00 6.3 11 Sudoeste 32 Sudoeste 0.4 -- -- 90
2021-02-07 20:00:00 7.2 10 Oeste 24 Sudoeste 0 -- -- 85
2021-02-07 19:00:00 8.1 8 Noroeste 25 Noroeste 0 -- -- 77
2021-02-07 18:00:00 9.1 6 Noroeste 21 Oeste 0 -- -- 73
2021-02-07 17:00:00 9.7 5 Oeste 20 Oeste 0 -- -- 71
2021-02-07 16:00:00 9.6 9 Oeste 25 Oeste 0 -- -- 68
2021-02-07 15:00:00 8.6 12 Noroeste 28 Noroeste 0 -- -- 69
2021-02-07 14:00:00 8.4 8 Oeste 27 Sudoeste 0 -- -- 72
2021-02-07 13:00:00 7.5 7 Noroeste 17 Noroeste 0 -- -- 77
2021-02-07 12:00:00 6.9 7 Noroeste 18 Oeste 0 -- -- 75
2021-02-07 11:00:00 5.9 8 Noroeste 18 Noroeste 0 -- -- 78
2021-02-07 10:00:00 5.4 9 Noroeste 21 Noroeste 0 -- -- 84
2021-02-07 09:00:00 5.1 9 Noroeste 17 Noroeste 0 -- -- 87
2021-02-07 08:00:00 5.1 9 Noroeste 13 Noroeste 0 -- -- 88
2021-02-07 07:00:00 5.2 5 Noroeste 13 Norte 0 -- -- 90
2021-02-07 06:00:00 5.5 7 Norte 14 Noroeste 0 -- -- 93
2021-02-07 05:00:00 6.1 8 Norte 14 Noroeste 0 -- -- 96
2021-02-07 04:00:00 6.2 6 Noroeste 14 Noroeste 0 -- -- 96
2021-02-07 03:00:00 6.6 4 Oeste 13 Oeste 0 -- -- 95
2021-02-07 02:00:00 6.9 5 Oeste 17 Sudoeste 0 -- -- 96
2021-02-07 01:00:00 6.7 0 Calma 10 Sudoeste 0 -- -- 97
2021-02-07 00:00:00 6.8 5 Sudoeste 10 Sudoeste 0 -- -- 97
2021-02-06 23:00:00 7 4 Sudoeste 9 Sudoeste 0 -- -- 96
2021-02-06 22:00:00 7 5 Sudoeste 14 Sur 0 -- -- 94
2021-02-06 21:00:00 7.3 8 Sudoeste 14 Sudoeste 0 -- -- 93
2021-02-06 20:00:00 7.3 8 Sudoeste 22 Sudoeste 0 -- -- 94
2021-02-06 19:00:00 7.5 14 Sudoeste 25 Sudoeste 0 -- -- 93
2021-02-06 18:00:00 8.4 14 Sudoeste 22 Sudoeste 0 -- -- 90
2021-02-06 17:00:00 9.1 14 Sudoeste 22 Sudoeste 0 -- -- 85
2021-02-06 16:00:00 8.9 14 Sudoeste 28 Sudoeste 0 -- -- 84
2021-02-06 15:00:00 9.2 15 Sudoeste 32 Sur 0 -- -- 84
2021-02-06 14:00:00 8.8 19 Sudoeste 30 Sudoeste 0 -- -- 84
2021-02-06 13:00:00 8 15 Sudoeste 38 Sur 0 -- -- 88
2021-02-06 12:00:00 9.6 28 Sur 37 Sur 0 -- -- 86
2021-02-06 11:00:00 8.4 20 Sur 28 Sur 0 -- -- 95
2021-02-06 10:00:00 7.2 8 Sur 14 Sur 1 -- -- 100
2021-02-06 09:00:00 6.7 6 Sur 11 Sur 0.6 -- -- 100
2021-02-06 08:00:00 6.2 0 Calma 10 Sur 0.2 -- -- 99
2021-02-06 07:00:00 6.1 7 Sur 13 Sur 0 -- -- 99
2021-02-06 06:00:00 7.1 5 Sur 11 Sur 0 -- -- 99
2021-02-06 05:00:00 7.8 8 Sur 15 Sur 0.2 -- -- 99
2021-02-06 04:00:00 8 5 Sur 10 Sur 0 -- -- 98
2021-02-06 03:00:00 8 5 Sur 14 Sur 0.8 -- -- 97
2021-02-06 02:00:00 8.2 3 Sudeste 15 Sudeste 0 -- -- 96
2021-02-06 01:00:00 8.4 7 Este 21 Este 0 -- -- 95
2021-02-06 00:00:00 8.5 11 Sudeste 19 Sudeste 0.2 -- -- 93
2021-02-05 23:00:00 8.5 8 Este 24 Sudeste 3.6 -- -- 95
2021-02-05 22:00:00 8.8 12 Sudeste 27 Sudeste 1 -- -- 93
2021-02-05 21:00:00 8.9 15 Sudeste 41 Este 0 -- -- 89
2021-02-05 20:00:00 8.6 17 Este 46 Este 0 -- -- 89
2021-02-05 19:00:00 10 17 Sudeste 34 Sudeste 0 -- -- 85
2021-02-05 18:00:00 12.5 14 Este 32 Sudeste 0 -- -- 76
2021-02-05 17:00:00 14.4 19 Este 39 Este 0 -- -- 69
2021-02-05 16:00:00 14.9 21 Este 35 Este 0 -- -- 67
2021-02-05 15:00:00 14.2 24 Sudeste 37 Este 0 -- -- 70
2021-02-05 14:00:00 13.5 24 Sudeste 40 Sudeste 0 -- -- 72
2021-02-05 13:00:00 12.7 24 Sudeste 45 Sudeste 0 -- -- 73
2021-02-05 12:00:00 11.3 26 Sudeste 41 Este 0 -- -- 78
2021-02-05 11:00:00 9.9 24 Este 40 Sudeste 0 -- -- 82
2021-02-05 10:00:00 8 5 Sudeste 13 Sudeste 0 -- -- 89
2021-02-05 09:00:00 7.3 4 Nordeste 12 Nordeste 0 -- -- 87
2021-02-05 08:00:00 7.5 4 Este 19 Este 0 -- -- 84
2021-02-05 07:00:00 7.7 8 Este 15 Este 0 -- -- 84
2021-02-05 06:00:00 7.8 0 Calma 15 Este 0 -- -- 83
2021-02-05 05:00:00 8.3 0 Calma 10 Este 0 -- -- 83
2021-02-05 04:00:00 8.9 2 Norte 10 Este 0 -- -- 83
2021-02-05 03:00:00 9.1 5 Este 17 Este 0 -- -- 85
2021-02-05 02:00:00 9.4 3 Sudoeste 18 Nordeste 0 -- -- 83
2021-02-05 01:00:00 9 2 Noroeste 21 Este 0 -- -- 86
2021-02-05 00:00:00 7.8 0 Calma 7 Sudeste 0 -- -- 88
2021-02-04 23:00:00 7.5 2 Noroeste 14 Noroeste 0 -- -- 88
2021-02-04 22:00:00 7.9 5 Norte 9 Noroeste 0 -- -- 87
2021-02-04 21:00:00 9.1 2 Este 9 Noroeste 0 -- -- 84
2021-02-04 20:00:00 10.8 3 Norte 7 Noroeste 0 -- -- 79
2021-02-04 19:00:00 12.4 4 Norte 8 Nordeste 0 -- -- 72
2021-02-04 18:00:00 14.2 0 Calma 9 Sudoeste 0 -- -- 65
2021-02-04 17:00:00 14.9 5 Oeste 17 Sudoeste 0 -- -- 59
2021-02-04 16:00:00 15.7 8 Sudoeste 18 Sur 0 -- -- 56
2021-02-04 15:00:00 15.6 12 Sudeste 22 Sur 0 -- -- 62
2021-02-04 14:00:00 14.5 17 Sudeste 34 Este 0 -- -- 66
2021-02-04 13:00:00 14.1 21 Sudeste 37 Sudeste 0 -- -- 68
2021-02-04 12:00:00 11.6 15 Sudeste 25 Este 0 -- -- 82
2021-02-04 11:00:00 8.4 6 Este 14 Este 0 -- -- 99
2021-02-04 10:00:00 7.2 7 Este 12 Este 0 -- -- 99
2021-02-04 09:00:00 6.6 3 Este 9 Sudeste 0 -- -- 99
2021-02-04 08:00:00 5.7 0 Calma 4 Noroeste 0 -- -- 98
2021-02-04 07:00:00 5.2 0 Calma 3 Sur 0 -- -- 98
2021-02-04 06:00:00 4.4 2 Sur 4 Sur 0 -- -- 96
2021-02-04 05:00:00 5.2 0 Calma 2 Norte 0 -- -- 96
2021-02-04 04:00:00 5.5 2 Norte 4 Noroeste 0 -- -- 96
2021-02-04 03:00:00 6.1 2 Norte 4 Noroeste 0 -- -- 96
2021-02-04 02:00:00 6.1 0 Calma 5 Sudeste 0 -- -- 96
2021-02-04 01:00:00 5.8 0 Calma 4 Norte 0 -- -- 95
2021-02-04 00:00:00 5.9 0 Calma 8 Norte 0 -- -- 94